Time;durP1;ratioP1;P1;durP2;ratioP2;P2;SDS_P1;SDS_P2;PMS_P1;PMS_P2;Temp;Humidity;BMP_temperature;BMP_pressure;BME280_temperature;BME280_humidity;BME280_pressure;Samples;Min_cycle;Max_cycle;Signal;HPM_P1;HPM_P2
2024/04/20 00:12:09;;;;;;;8.20;4.10;;;;;;;12.90;90.37;100197.97;33525675;26;20018;-74
2024/04/20 00:27:11;;;;;;;8.77;4.30;;;;;;;12.90;91.64;100189.03;33450323;26;20012;-74
2024/04/20 00:42:14;;;;;;;16.10;6.00;;;;;;;12.04;100.00;100209.53;33505216;26;20471;-73
2024/04/20 00:57:17;;;;;;;8.33;4.97;;;;;;;12.11;100.00;100205.84;33515430;26;20016;-75
2024/04/20 01:12:19;;;;;;;7.20;4.73;;;;;;;12.37;100.00;100202.09;33486400;26;20032;-74
2024/04/20 01:27:21;;;;;;;12.40;5.00;;;;;;;12.43;100.00;100202.34;33496526;26;20007;-74
2024/04/20 01:42:24;;;;;;;10.87;5.70;;;;;;;12.54;100.00;100198.13;33492770;26;20011;-74
2024/04/20 01:57:26;;;;;;;13.10;5.57;;;;;;;12.70;100.00;100200.06;33531115;26;20012;-74
2024/04/20 02:12:30;;;;;;;13.10;5.60;;;;;;;12.94;100.00;100203.31;33526528;26;20018;-75
2024/04/20 02:27:33;;;;;;;6.83;4.10;;;;;;;12.95;100.00;100188.50;33495884;26;20413;-74
2024/04/20 02:42:35;;;;;;;10.10;4.97;;;;;;;13.22;100.00;100180.75;33484771;26;20022;-74
2024/04/20 02:57:37;;;;;;;9.93;4.23;;;;;;;13.01;100.00;100175.84;33551022;26;20473;-75
2024/04/20 03:12:40;;;;;;;8.17;4.20;;;;;;;13.49;100.00;100182.25;33596540;26;20462;-73
2024/04/20 03:27:42;;;;;;;4.97;3.10;;;;;;;13.30;100.00;100200.34;33491654;26;20015;-72
2024/04/20 03:42:45;;;;;;;6.33;3.30;;;;;;;13.42;99.72;100204.31;33575887;26;20035;-74
2024/04/20 03:57:47;;;;;;;6.57;3.50;;;;;;;13.82;93.02;100189.03;33542679;26;20019;-73
2024/04/20 04:12:50;;;;;;;5.57;2.97;;;;;;;14.89;79.97;100207.31;33493228;26;20082;-72
2024/04/20 04:27:52;;;;;;;11.80;3.20;;;;;;;14.98;76.31;100188.25;33445011;26;20069;-72
2024/04/20 04:42:54;;;;;;;3.70;2.20;;;;;;;15.64;71.50;100183.44;33491066;26;20023;-73
2024/04/20 04:57:57;;;;;;;4.23;2.30;;;;;;;16.03;69.06;100182.66;33510569;26;20340;-73
2024/04/20 05:12:59;;;;;;;3.23;2.00;;;;;;;16.95;66.63;100199.16;33560989;26;20003;-74
2024/04/20 05:28:02;;;;;;;2.93;2.40;;;;;;;17.36;63.94;100203.16;33508731;26;20003;-73
2024/04/20 05:43:04;;;;;;;7.40;3.00;;;;;;;18.46;60.32;100200.63;33517874;26;20000;-73
2024/04/20 05:58:07;;;;;;;7.67;2.53;;;;;;;19.40;56.55;100171.28;33518888;26;20516;-73
2024/04/20 06:13:10;;;;;;;20.93;3.40;;;;;;;20.32;54.42;100175.56;33516616;26;20004;-73
2024/04/20 06:28:14;;;;;;;4.00;2.83;;;;;;;21.55;51.44;100144.38;33523719;26;20046;-74
2024/04/20 06:43:17;;;;;;;4.40;1.90;;;;;;;22.69;46.01;100126.47;33475680;26;20090;-74
2024/04/20 06:58:19;;;;;;;6.25;2.30;;;;;;;22.72;45.00;100133.78;33439252;26;20069;-73
2024/04/20 07:13:24;;;;;;;5.78;2.17;;;;;;;23.24;42.54;100113.94;33489345;26;20004;-73
2024/04/20 07:28:27;;;;;;;6.30;2.50;;;;;;;24.10;41.89;100103.63;33505382;26;20054;-73
2024/04/20 07:43:29;;;;;;;8.83;2.63;;;;;;;24.39;39.55;100090.38;33481662;26;20003;-75
2024/04/20 07:58:33;;;;;;;4.07;2.30;;;;;;;24.32;38.98;100063.97;33584246;26;20319;-73
2024/04/20 08:13:36;;;;;;;4.35;2.10;;;;;;;25.17;37.58;100048.13;33498362;26;20020;-73
2024/04/20 08:28:41;;;;;;;4.80;2.00;;;;;;;25.92;35.54;100020.47;33608444;26;20498;-76
2024/04/20 08:43:43;;;;;;;3.22;1.60;;;;;;;25.13;35.47;100003.22;33517131;26;20421;-73
2024/04/20 08:58:46;;;;;;;10.10;2.00;;;;;;;25.69;35.08;99988.69;33566110;26;20417;-73
2024/04/20 09:13:49;;;;;;;2.40;1.33;;;;;;;25.58;34.60;99983.25;33564063;26;20039;-76
2024/04/20 09:28:58;;;;;;;2.88;1.77;;;;;;;23.61;36.50;99964.03;33427761;26;20281;-74
2024/04/20 09:44:02;;;;;;;5.22;2.10;;;;;;;22.58;37.55;99954.97;33587330;26;20117;-75
2024/04/20 09:59:08;;;;;;;3.00;1.90;;;;;;;21.91;38.66;99915.47;33519093;26;20074;-77
2024/04/20 10:14:11;;;;;;;7.17;1.70;;;;;;;22.26;40.06;99918.53;33454232;26;20074;-79
2024/04/20 10:29:20;;;;;;;4.00;2.20;;;;;;;21.86;41.19;99913.47;33442519;26;20019;-79
2024/04/20 10:44:27;;;;;;;7.95;2.28;;;;;;;21.92;41.30;99909.44;33502721;26;20007;-76
2024/04/20 10:59:29;;;;;;;4.50;1.67;;;;;;;22.00;41.33;99890.34;33558340;26;20008;-79
2024/04/20 11:14:32;;;;;;;1.73;1.20;;;;;;;21.40;43.02;99876.72;33425653;26;20033;-79
2024/04/20 11:29:35;;;;;;;7.60;1.90;;;;;;;21.63;42.35;99838.09;33580929;26;20101;-76
2024/04/20 11:44:37;;;;;;;6.57;2.33;;;;;;;20.79;46.25;99856.38;33619756;26;20377;-74
2024/04/20 11:59:39;;;;;;;13.18;4.65;;;;;;;20.20;52.22;99832.19;33563907;26;20011;-75
2024/04/20 12:14:42;;;;;;;11.70;3.60;;;;;;;19.63;59.58;99799.94;33549593;26;20039;-74
2024/04/20 12:29:49;;;;;;;7.40;2.40;;;;;;;19.17;71.12;99764.97;33439563;26;20470;-74
2024/04/20 12:45:01;;;;;;;6.97;3.13;;;;;;;19.21;78.47;99715.97;33572820;26;20071;-76
2024/04/20 13:00:06;;;;;;;13.33;5.07;;;;;;;19.06;80.01;99657.56;33569442;26;20022;-76
2024/04/20 13:15:10;;;;;;;8.03;3.63;;;;;;;18.12;100.00;99682.00;33620205;26;20080;-77
2024/04/20 13:30:12;;;;;;;7.73;4.27;;;;;;;17.72;100.00;99603.84;33568602;26;20040;-76
2024/04/20 13:45:16;;;;;;;4.33;2.33;;;;;;;17.22;100.00;99549.00;33451773;26;20450;-78
2024/04/20 14:00:19;;;;;;;6.50;2.00;;;;;;;17.45;100.00;99552.81;33517960;26;20012;-77
2024/04/20 14:15:21;;;;;;;5.77;2.80;;;;;;;17.61;100.00;99529.56;33525029;26;20011;-78
2024/04/20 14:30:23;;;;;;;5.87;3.03;;;;;;;17.34;100.00;99495.03;33435542;26;20028;-78
2024/04/20 14:45:26;;;;;;;4.50;3.03;;;;;;;16.85;100.00;99531.47;33519668;26;20091;-79
2024/04/20 15:00:28;;;;;;;6.10;3.27;;;;;;;17.08;100.00;99445.59;33455507;26;20004;-79
2024/04/20 15:15:31;;;;;;;2.97;2.03;;;;;;;17.60;100.00;99429.25;33470769;26;20098;-82
2024/04/20 15:30:33;;;;;;;5.30;2.20;;;;;;;17.57;100.00;99449.44;33416702;26;20012;-78
2024/04/20 15:45:39;;;;;;;3.67;1.97;;;;;;;17.86;100.00;99467.75;33472501;26;20004;-78
2024/04/20 16:00:46;;;;;;;5.27;2.23;;;;;;;18.05;100.00;99433.25;33396952;26;20050;-78
2024/04/20 16:15:53;;;;;;;4.07;2.13;;;;;;;17.71;100.00;99402.69;33494778;26;20077;-75
2024/04/20 16:30:56;;;;;;;7.00;2.23;;;;;;;18.00;100.00;99377.03;33424967;26;20018;-75
2024/04/20 16:46:04;;;;;;;4.43;1.87;;;;;;;17.91;100.00;99371.72;33471006;26;20015;-74
2024/04/20 17:01:11;;;;;;;4.90;2.40;;;;;;;18.26;96.36;99359.75;33510962;26;20396;-74
2024/04/20 17:16:15;;;;;;;4.20;2.20;;;;;;;18.29;95.02;99345.03;33524299;26;20004;-75
2024/04/20 17:31:19;;;;;;;;;;;;;;;18.13;96.72;99326.44;33446565;26;20004;-74
2024/04/20 17:46:21;;;;;;;5.23;2.50;;;;;;;17.95;97.26;99284.38;33481422;26;20289;-77
2024/04/20 18:01:24;;;;;;;3.03;2.23;;;;;;;17.57;100.00;99271.06;33501325;26;20470;-79
2024/04/20 18:16:30;;;;;;;8.00;4.30;;;;;;;17.43;100.00;99239.03;33491270;26;20018;-75
2024/04/20 18:31:32;;;;;;;6.17;2.90;;;;;;;18.00;99.16;99220.50;33412583;26;20389;-78
2024/04/20 18:46:34;;;;;;;6.07;2.90;;;;;;;17.79;100.00;99207.38;33449292;26;20048;-75
2024/04/20 19:01:37;;;;;;;3.93;2.27;;;;;;;17.89;100.00;99219.69;33462380;26;20486;-74
2024/04/20 19:16:39;;;;;;;10.80;3.07;;;;;;;18.24;99.43;99211.16;33452151;26;20012;-73
2024/04/20 19:31:42;;;;;;;3.93;2.53;;;;;;;17.99;100.00;99205.28;33468071;26;20713;-74
2024/04/20 19:46:45;;;;;;;3.40;2.50;;;;;;;18.28;100.00;99151.22;33452058;26;20014;-75
2024/04/20 20:01:50;;;;;;;11.00;3.50;;;;;;;18.36;99.18;99127.53;33486221;26;20360;-74
2024/04/20 20:16:53;;;;;;;6.50;3.30;;;;;;;18.30;99.83;99082.81;33442915;26;20014;-76
2024/04/20 20:31:55;;;;;;;10.97;3.83;;;;;;;18.47;97.44;99063.63;33432825;26;20009;-74
2024/04/20 20:47:02;;;;;;;13.73;5.43;;;;;;;18.96;89.07;99042.94;33460213;26;21824;-75
2024/04/20 21:02:04;;;;;;;13.13;3.90;;;;;;;19.33;82.22;99021.38;33466347;26;20000;-75
2024/04/20 21:17:07;;;;;;;6.90;2.23;;;;;;;19.46;81.06;99004.34;33480816;26;20005;-76
2024/04/20 21:32:09;;;;;;;8.23;2.43;;;;;;;19.66;76.45;98981.25;33430767;26;20028;-77
2024/04/20 21:47:12;;;;;;;5.93;3.00;;;;;;;19.75;76.03;98961.69;33463250;26;20008;-78
2024/04/20 22:02:14;;;;;;;9.13;3.50;;;;;;;19.73;74.81;98920.16;33497996;26;20338;-75
2024/04/20 22:17:17;;;;;;;7.97;3.65;;;;;;;19.51;76.27;98903.75;33521022;26;20040;-76
2024/04/20 22:32:19;;;;;;;7.43;2.20;;;;;;;18.68;80.61;98848.53;33398033;26;20012;-76
2024/04/20 22:47:21;;;;;;;9.03;2.90;;;;;;;18.50;83.71;98820.81;33443078;26;20019;-76
2024/04/20 23:02:24;;;;;;;9.13;3.40;;;;;;;18.51;85.41;98798.31;33459712;26;20004;-76
2024/04/20 23:17:27;;;;;;;7.85;2.78;;;;;;;18.68;85.72;98790.78;33390303;26;20012;-76
2024/04/20 23:32:29;;;;;;;8.73;3.28;;;;;;;18.64;88.14;98759.34;33519245;26;20004;-76
2024/04/20 23:47:31;;;;;;;6.97;3.10;;;;;;;18.53;89.70;98757.34;33452876;26;20001;-77
